sensor_id;sensor_type;location;lat;lon;timestamp;pressure;altitude;pressure_sealevel;temperature;humidity
10832;BME280;5469;48.574;8.768;2022-11-15T00:01:24;94638.94;;;9.41;77.23
10832;BME280;5469;48.574;8.768;2022-11-15T00:03:59;94645.28;;;9.35;77.71
10832;BME280;5469;48.574;8.768;2022-11-15T00:06:34;94645.28;;;9.35;77.67
10832;BME280;5469;48.574;8.768;2022-11-15T00:09:09;94637.38;;;9.25;77.98
10832;BME280;5469;48.574;8.768;2022-11-15T00:11:44;94634.72;;;9.35;77.06
10832;BME280;5469;48.574;8.768;2022-11-15T00:14:20;94630.00;;;9.11;77.88
10832;BME280;5469;48.574;8.768;2022-11-15T00:16:55;94638.47;;;9.13;78.08
10832;BME280;5469;48.574;8.768;2022-11-15T00:19:32;94638.47;;;9.13;77.98
10832;BME280;5469;48.574;8.768;2022-11-15T00:22:08;94626.84;;;8.99;78.16
10832;BME280;5469;48.574;8.768;2022-11-15T00:24:43;94628.94;;;9.07;77.99
10832;BME280;5469;48.574;8.768;2022-11-15T00:27:20;94632.13;;;8.99;78.63
10832;BME280;5469;48.574;8.768;2022-11-15T00:29:57;94635.84;;;9.13;78.00
10832;BME280;5469;48.574;8.768;2022-11-15T00:32:32;94631.88;;;9.01;78.23
10832;BME280;5469;48.574;8.768;2022-11-15T00:35:08;94626.84;;;9.09;77.92
10832;BME280;5469;48.574;8.768;2022-11-15T00:37:43;94635.31;;;9.01;78.89
10832;BME280;5469;48.574;8.768;2022-11-15T00:40:19;94631.06;;;9.05;77.96
10832;BME280;5469;48.574;8.768;2022-11-15T00:42:54;94623.13;;;9.10;77.69
10832;BME280;5469;48.574;8.768;2022-11-15T00:45:30;94627.91;;;9.03;78.00
10832;BME280;5469;48.574;8.768;2022-11-15T00:48:06;94624.22;;;8.94;78.95
10832;BME280;5469;48.574;8.768;2022-11-15T00:50:41;94623.66;;;9.07;77.98
10832;BME280;5469;48.574;8.768;2022-11-15T00:53:17;94622.63;;;9.03;78.31
10832;BME280;5469;48.574;8.768;2022-11-15T00:55:52;94622.63;;;9.03;77.63
10832;BME280;5469;48.574;8.768;2022-11-15T00:58:28;94616.28;;;8.89;78.54
10832;BME280;5469;48.574;8.768;2022-11-15T01:01:11;94623.69;;;8.92;78.70
10832;BME280;5469;48.574;8.768;2022-11-15T01:03:46;94614.72;;;8.78;79.60
10832;BME280;5469;48.574;8.768;2022-11-15T01:06:21;94612.63;;;8.80;79.57
10832;BME280;5469;48.574;8.768;2022-11-15T01:08:56;94613.66;;;8.79;79.63
10832;BME280;5469;48.574;8.768;2022-11-15T01:11:31;94607.31;;;8.90;78.83
10832;BME280;5469;48.574;8.768;2022-11-15T01:14:06;94608.88;;;8.96;78.64
10832;BME280;5469;48.574;8.768;2022-11-15T01:16:42;94606.22;;;9.06;77.45
10832;BME280;5469;48.574;8.768;2022-11-15T01:19:17;94604.63;;;9.05;77.83
10832;BME280;5469;48.574;8.768;2022-11-15T01:21:53;94589.28;;;9.12;77.02
10832;BME280;5469;48.574;8.768;2022-11-15T01:24:28;94594.03;;;9.15;76.77
10832;BME280;5469;48.574;8.768;2022-11-15T01:27:04;94582.94;;;9.24;76.18
10832;BME280;5469;48.574;8.768;2022-11-15T01:29:38;94594.00;;;9.26;75.90
10832;BME280;5469;48.574;8.768;2022-11-15T01:32:15;94587.16;;;9.19;75.53
10832;BME280;5469;48.574;8.768;2022-11-15T01:34:50;94588.44;;;9.32;75.53
10832;BME280;5469;48.574;8.768;2022-11-15T01:37:26;94592.41;;;9.35;75.59
10832;BME280;5469;48.574;8.768;2022-11-15T01:40:01;94595.59;;;9.32;75.06
10832;BME280;5469;48.574;8.768;2022-11-15T01:42:37;94593.47;;;9.34;75.41
10832;BME280;5469;48.574;8.768;2022-11-15T01:45:15;94599.81;;;9.33;75.04
10832;BME280;5469;48.574;8.768;2022-11-15T01:47:54;94582.38;;;9.32;75.15
10832;BME280;5469;48.574;8.768;2022-11-15T01:50:32;94589.22;;;9.33;75.05
10832;BME280;5469;48.574;8.768;2022-11-15T01:53:07;94578.66;;;9.33;74.98
10832;BME280;5469;48.574;8.768;2022-11-15T01:55:45;94573.59;;;9.41;74.45
10832;BME280;5469;48.574;8.768;2022-11-15T01:58:20;94571.25;;;9.35;75.27
10832;BME280;5469;48.574;8.768;2022-11-15T02:00:56;94569.94;;;9.32;74.99
10832;BME280;5469;48.574;8.768;2022-11-15T02:03:38;94567.53;;;9.36;75.20
10832;BME280;5469;48.574;8.768;2022-11-15T02:06:16;94566.50;;;9.32;74.76
10832;BME280;5469;48.574;8.768;2022-11-15T02:08:51;94560.13;;;9.38;74.60
10832;BME280;5469;48.574;8.768;2022-11-15T02:11:26;94562.25;;;9.36;74.84
10832;BME280;5469;48.574;8.768;2022-11-15T02:14:03;94552.75;;;9.30;74.91
10832;BME280;5469;48.574;8.768;2022-11-15T02:16:46;94564.88;;;9.41;74.81
10832;BME280;5469;48.574;8.768;2022-11-15T02:19:37;94549.78;;;9.41;74.46
10832;BME280;5469;48.574;8.768;2022-11-15T02:22:24;94552.44;;;9.41;74.16
10832;BME280;5469;48.574;8.768;2022-11-15T02:25:15;94550.59;;;9.42;74.17
10832;BME280;5469;48.574;8.768;2022-11-15T02:28:16;94546.84;;;9.48;74.56
10832;BME280;5469;48.574;8.768;2022-11-15T02:30:58;94538.41;;;9.41;74.10
10832;BME280;5469;48.574;8.768;2022-11-15T02:33:39;94540.53;;;9.39;74.20
10832;BME280;5469;48.574;8.768;2022-11-15T02:36:21;94535.78;;;9.36;74.65
10832;BME280;5469;48.574;8.768;2022-11-15T02:39:02;94544.25;;;9.38;74.10
10832;BME280;5469;48.574;8.768;2022-11-15T02:41:45;94546.09;;;9.43;74.64
10832;BME280;5469;48.574;8.768;2022-11-15T02:44:26;94522.06;;;9.34;74.49
10832;BME280;5469;48.574;8.768;2022-11-15T02:47:08;94530.25;;;9.32;75.17
10832;BME280;5469;48.574;8.768;2022-11-15T02:49:50;94515.91;;;9.44;74.08
10832;BME280;5469;48.574;8.768;2022-11-15T02:52:27;94500.31;;;9.47;74.73
10832;BME280;5469;48.574;8.768;2022-11-15T02:55:04;94499.75;;;9.50;73.81
10832;BME280;5469;48.574;8.768;2022-11-15T02:57:45;94504.56;;;9.43;74.06
10832;BME280;5469;48.574;8.768;2022-11-15T03:00:24;94507.97;;;9.49;74.21
10832;BME280;5469;48.574;8.768;2022-11-15T03:03:10;94507.44;;;9.47;73.89
10832;BME280;5469;48.574;8.768;2022-11-15T03:05:56;94508.25;;;9.47;74.08
10832;BME280;5469;48.574;8.768;2022-11-15T03:08:41;94504.06;;;9.36;74.51
10832;BME280;5469;48.574;8.768;2022-11-15T03:11:21;94503.44;;;9.49;74.23
10832;BME280;5469;48.574;8.768;2022-11-15T03:14:00;94507.22;;;9.38;74.92
10832;BME280;5469;48.574;8.768;2022-11-15T03:16:40;94500.94;;;9.29;75.54
10832;BME280;5469;48.574;8.768;2022-11-15T03:19:23;94492.94;;;9.39;75.68
10832;BME280;5469;48.574;8.768;2022-11-15T03:22:02;94492.41;;;9.42;74.86
10832;BME280;5469;48.574;8.768;2022-11-15T03:24:40;94491.84;;;9.45;74.81
10832;BME280;5469;48.574;8.768;2022-11-15T03:27:19;94496.91;;;9.36;75.72
10832;BME280;5469;48.574;8.768;2022-11-15T03:29:59;94494.81;;;9.33;76.07
10832;BME280;5469;48.574;8.768;2022-11-15T03:32:38;94488.75;;;9.28;76.51
10832;BME280;5469;48.574;8.768;2022-11-15T03:35:17;94491.44;;;9.17;76.62
10832;BME280;5469;48.574;8.768;2022-11-15T03:37:57;94487.25;;;9.11;76.86
10832;BME280;5469;48.574;8.768;2022-11-15T03:40:37;94480.88;;;9.17;76.92
10832;BME280;5469;48.574;8.768;2022-11-15T03:43:19;94477.19;;;9.13;76.66
10832;BME280;5469;48.574;8.768;2022-11-15T03:46:00;94472.09;;;9.32;76.59
10832;BME280;5469;48.574;8.768;2022-11-15T03:48:39;94470.22;;;9.33;75.68
10832;BME280;5469;48.574;8.768;2022-11-15T03:51:18;94472.63;;;9.29;76.11
10832;BME280;5469;48.574;8.768;2022-11-15T03:53:53;94460.19;;;9.30;76.61
10832;BME280;5469;48.574;8.768;2022-11-15T03:56:28;94455.91;;;9.39;76.29
10832;BME280;5469;48.574;8.768;2022-11-15T03:59:03;94452.75;;;9.37;76.80
10832;BME280;5469;48.574;8.768;2022-11-15T04:01:38;94450.88;;;9.43;76.59
10832;BME280;5469;48.574;8.768;2022-11-15T04:04:12;94451.72;;;9.33;76.99
10832;BME280;5469;48.574;8.768;2022-11-15T04:06:49;94443.69;;;9.48;75.83
10832;BME280;5469;48.574;8.768;2022-11-15T04:09:24;94451.16;;;9.36;77.26
10832;BME280;5469;48.574;8.768;2022-11-15T04:11:58;94454.31;;;9.38;77.41
10832;BME280;5469;48.574;8.768;2022-11-15T04:14:33;94445.97;;;9.15;78.82
10832;BME280;5469;48.574;8.768;2022-11-15T04:17:08;94458.97;;;9.07;79.51
10832;BME280;5469;48.574;8.768;2022-11-15T04:19:43;94454.94;;;9.25;77.67
10832;BME280;5469;48.574;8.768;2022-11-15T04:22:37;94457.84;;;9.23;78.73
10832;BME280;5469;48.574;8.768;2022-11-15T04:25:30;94464.03;;;9.03;80.56
10832;BME280;5469;48.574;8.768;2022-11-15T04:28:06;94467.72;;;9.02;80.53
10832;BME280;5469;48.574;8.768;2022-11-15T04:30:41;94461.38;;;9.03;80.32
10832;BME280;5469;48.574;8.768;2022-11-15T04:33:16;94459.78;;;9.02;79.86
10832;BME280;5469;48.574;8.768;2022-11-15T04:35:51;94454.44;;;9.17;78.71
10832;BME280;5469;48.574;8.768;2022-11-15T04:38:46;94446.91;;;9.40;76.90
10832;BME280;5469;48.574;8.768;2022-11-15T04:41:21;94449.53;;;9.45;75.89
10832;BME280;5469;48.574;8.768;2022-11-15T04:43:56;94451.69;;;9.38;78.27
10832;BME280;5469;48.574;8.768;2022-11-15T04:46:32;94444.78;;;9.42;76.91
10832;BME280;5469;48.574;8.768;2022-11-15T04:49:07;94441.66;;;9.35;79.26
10832;BME280;5469;48.574;8.768;2022-11-15T04:51:42;94430.00;;;9.36;77.30
10832;BME280;5469;48.574;8.768;2022-11-15T04:54:18;94439.63;;;9.22;79.82
10832;BME280;5469;48.574;8.768;2022-11-15T04:56:53;94442.91;;;8.98;81.79
10832;BME280;5469;48.574;8.768;2022-11-15T04:59:28;94442.97;;;8.83;84.01
10832;BME280;5469;48.574;8.768;2022-11-15T05:02:03;94436.63;;;8.79;82.81
10832;BME280;5469;48.574;8.768;2022-11-15T05:04:38;94421.28;;;8.86;82.17
10832;BME280;5469;48.574;8.768;2022-11-15T05:07:14;94444.06;;;8.66;85.34
10832;BME280;5469;48.574;8.768;2022-11-15T05:09:50;94431.94;;;8.55;86.12
10832;BME280;5469;48.574;8.768;2022-11-15T05:12:25;94441.97;;;8.58;86.45
10832;BME280;5469;48.574;8.768;2022-11-15T05:15:01;94435.34;;;8.66;85.79
10832;BME280;5469;48.574;8.768;2022-11-15T05:17:36;94428.75;;;8.63;86.32
10832;BME280;5469;48.574;8.768;2022-11-15T05:20:12;94426.59;;;8.75;86.15
10832;BME280;5469;48.574;8.768;2022-11-15T05:22:47;94425.81;;;8.75;86.06
10832;BME280;5469;48.574;8.768;2022-11-15T05:25:24;94417.09;;;8.80;85.55
10832;BME280;5469;48.574;8.768;2022-11-15T05:27:59;94418.66;;;8.81;85.83
10832;BME280;5469;48.574;8.768;2022-11-15T05:30:34;94418.66;;;8.81;85.84
10832;BME280;5469;48.574;8.768;2022-11-15T05:33:10;94408.31;;;8.84;85.01
10832;BME280;5469;48.574;8.768;2022-11-15T05:35:50;94408.34;;;8.79;85.44
10832;BME280;5469;48.574;8.768;2022-11-15T05:38:30;94402.78;;;8.81;85.86
10832;BME280;5469;48.574;8.768;2022-11-15T05:41:07;94411.25;;;8.83;86.35
10832;BME280;5469;48.574;8.768;2022-11-15T05:43:44;94400.38;;;8.89;85.85
10832;BME280;5469;48.574;8.768;2022-11-15T05:46:20;94405.97;;;8.83;86.13
10832;BME280;5469;48.574;8.768;2022-11-15T05:48:56;94406.72;;;8.93;85.86
10832;BME280;5469;48.574;8.768;2022-11-15T05:51:33;94407.81;;;8.87;85.68
10832;BME280;5469;48.574;8.768;2022-11-15T05:54:09;94403.31;;;8.88;85.77
10832;BME280;5469;48.574;8.768;2022-11-15T05:56:46;94400.69;;;8.83;85.81
10832;BME280;5469;48.574;8.768;2022-11-15T05:59:22;94402.78;;;8.86;85.32
10832;BME280;5469;48.574;8.768;2022-11-15T06:01:57;94406.22;;;8.86;85.17
10832;BME280;5469;48.574;8.768;2022-11-15T06:04:32;94403.31;;;8.88;84.59
10832;BME280;5469;48.574;8.768;2022-11-15T06:07:07;94402.25;;;8.84;84.64
10832;BME280;5469;48.574;8.768;2022-11-15T06:09:42;94403.88;;;8.80;84.62
10832;BME280;5469;48.574;8.768;2022-11-15T06:12:18;94413.66;;;8.74;84.77
10832;BME280;5469;48.574;8.768;2022-11-15T06:14:54;94409.66;;;8.82;84.60
10832;BME280;5469;48.574;8.768;2022-11-15T06:17:31;94417.09;;;8.80;84.57
10832;BME280;5469;48.574;8.768;2022-11-15T06:20:07;94413.09;;;8.87;84.50
10832;BME280;5469;48.574;8.768;2022-11-15T06:22:43;94410.44;;;8.87;83.82
10832;BME280;5469;48.574;8.768;2022-11-15T06:25:18;94410.69;;;8.86;83.90
10832;BME280;5469;48.574;8.768;2022-11-15T06:27:56;94408.63;;;8.83;84.05
10832;BME280;5469;48.574;8.768;2022-11-15T06:30:31;94407.84;;;8.77;83.82
10832;BME280;5469;48.574;8.768;2022-11-15T06:33:06;94404.88;;;8.89;83.48
10832;BME280;5469;48.574;8.768;2022-11-15T06:35:42;94406.97;;;8.92;83.04
10832;BME280;5469;48.574;8.768;2022-11-15T06:38:17;94404.28;;;9.02;82.32
10832;BME280;5469;48.574;8.768;2022-11-15T06:40:52;94412.69;;;9.09;82.48
10832;BME280;5469;48.574;8.768;2022-11-15T06:43:28;94413.50;;;9.10;82.36
10832;BME280;5469;48.574;8.768;2022-11-15T06:46:05;94413.22;;;9.11;82.67
10832;BME280;5469;48.574;8.768;2022-11-15T06:48:40;94420.41;;;9.06;82.83
10832;BME280;5469;48.574;8.768;2022-11-15T06:51:15;94421.22;;;8.96;83.70
10832;BME280;5469;48.574;8.768;2022-11-15T06:53:50;94423.31;;;9.04;82.74
10832;BME280;5469;48.574;8.768;2022-11-15T06:56:25;94416.44;;;9.08;82.99
10832;BME280;5469;48.574;8.768;2022-11-15T06:59:02;94429.59;;;9.18;82.58
10832;BME280;5469;48.574;8.768;2022-11-15T07:01:37;94409.22;;;9.19;82.15
10832;BME280;5469;48.574;8.768;2022-11-15T07:04:12;94424.25;;;9.29;82.57
10832;BME280;5469;48.574;8.768;2022-11-15T07:06:48;94430.00;;;9.36;81.81
10832;BME280;5469;48.574;8.768;2022-11-15T07:09:23;94415.19;;;9.40;81.38
10832;BME280;5469;48.574;8.768;2022-11-15T07:11:57;94419.91;;;9.43;81.37
10832;BME280;5469;48.574;8.768;2022-11-15T07:14:34;94421.41;;;9.54;81.49
10832;BME280;5469;48.574;8.768;2022-11-15T07:17:09;94418.81;;;9.49;81.19
10832;BME280;5469;48.574;8.768;2022-11-15T07:19:44;94424.03;;;9.59;82.05
10832;BME280;5469;48.574;8.768;2022-11-15T07:22:18;94415.28;;;9.64;81.20
10832;BME280;5469;48.574;8.768;2022-11-15T07:24:53;94426.19;;;9.57;82.48
10832;BME280;5469;48.574;8.768;2022-11-15T07:27:28;94419.56;;;9.60;81.17
10832;BME280;5469;48.574;8.768;2022-11-15T07:30:07;94416.53;;;9.72;80.96
10832;BME280;5469;48.574;8.768;2022-11-15T07:32:42;94420.50;;;9.74;80.42
10832;BME280;5469;48.574;8.768;2022-11-15T07:35:17;94419.59;;;9.89;80.50
10832;BME280;5469;48.574;8.768;2022-11-15T07:37:54;94420.16;;;9.86;80.07
10832;BME280;5469;48.574;8.768;2022-11-15T07:40:31;94412.66;;;9.93;79.81
10832;BME280;5469;48.574;8.768;2022-11-15T07:43:10;94418.94;;;10.02;79.45
10832;BME280;5469;48.574;8.768;2022-11-15T07:45:47;94426.00;;;9.78;83.74
10832;BME280;5469;48.574;8.768;2022-11-15T07:48:22;94425.00;;;9.74;84.69
10832;BME280;5469;48.574;8.768;2022-11-15T07:50:57;94420.56;;;9.98;82.42
10832;BME280;5469;48.574;8.768;2022-11-15T07:53:33;94426.72;;;10.23;79.78
10832;BME280;5469;48.574;8.768;2022-11-15T07:56:09;94421.50;;;10.13;79.41
10832;BME280;5469;48.574;8.768;2022-11-15T07:58:46;94402.06;;;10.27;79.01
10832;BME280;5469;48.574;8.768;2022-11-15T08:01:23;94404.66;;;10.33;78.47
10832;BME280;5469;48.574;8.768;2022-11-15T08:04:00;94407.47;;;10.41;78.14
10832;BME280;5469;48.574;8.768;2022-11-15T08:06:36;94412.69;;;10.52;78.43
10832;BME280;5469;48.574;8.768;2022-11-15T08:09:11;94411.28;;;10.59;78.06
10832;BME280;5469;48.574;8.768;2022-11-15T08:11:46;94420.47;;;10.67;77.96
10832;BME280;5469;48.574;8.768;2022-11-15T08:14:21;94427.16;;;10.59;78.42
10832;BME280;5469;48.574;8.768;2022-11-15T08:16:58;94416.28;;;10.61;77.80
10832;BME280;5469;48.574;8.768;2022-11-15T08:19:33;94410.16;;;11.08;77.68
10832;BME280;5469;48.574;8.768;2022-11-15T08:22:08;94413.44;;;11.00;76.25
10832;BME280;5469;48.574;8.768;2022-11-15T08:24:43;94411.47;;;11.30;76.13
10832;BME280;5469;48.574;8.768;2022-11-15T08:27:19;94408.94;;;11.38;75.54
10832;BME280;5469;48.574;8.768;2022-11-15T08:29:54;94406.44;;;11.28;76.57
10832;BME280;5469;48.574;8.768;2022-11-15T08:32:32;94402.50;;;11.45;76.12
10832;BME280;5469;48.574;8.768;2022-11-15T08:35:09;94402.91;;;11.33;75.22
10832;BME280;5469;48.574;8.768;2022-11-15T08:37:45;94399.78;;;11.50;76.11
10832;BME280;5469;48.574;8.768;2022-11-15T08:40:20;94385.38;;;11.37;74.58
10832;BME280;5469;48.574;8.768;2022-11-15T08:42:56;94386.84;;;11.62;75.69
10832;BME280;5469;48.574;8.768;2022-11-15T08:45:33;94382.63;;;11.61;74.66
10832;BME280;5469;48.574;8.768;2022-11-15T08:48:10;94384.28;;;11.57;74.43
10832;BME280;5469;48.574;8.768;2022-11-15T08:50:45;94382.44;;;11.71;74.89
10832;BME280;5469;48.574;8.768;2022-11-15T08:53:20;94379.22;;;11.74;74.45
10832;BME280;5469;48.574;8.768;2022-11-15T08:55:55;94381.78;;;11.79;74.31
10832;BME280;5469;48.574;8.768;2022-11-15T08:58:30;94380.16;;;11.84;74.26
10832;BME280;5469;48.574;8.768;2022-11-15T09:01:06;94387.56;;;11.87;73.87
10832;BME280;5469;48.574;8.768;2022-11-15T09:03:42;94378.34;;;11.98;73.13
10832;BME280;5469;48.574;8.768;2022-11-15T09:06:17;94382.34;;;12.42;72.06
10832;BME280;5469;48.574;8.768;2022-11-15T09:08:52;94374.56;;;12.87;72.72
10832;BME280;5469;48.574;8.768;2022-11-15T09:11:27;94379.41;;;12.85;69.95
10832;BME280;5469;48.574;8.768;2022-11-15T09:14:02;94378.38;;;13.08;69.54
10832;BME280;5469;48.574;8.768;2022-11-15T09:16:37;94373.47;;;12.88;69.32
10832;BME280;5469;48.574;8.768;2022-11-15T09:19:14;94379.13;;;13.23;69.17
10832;BME280;5469;48.574;8.768;2022-11-15T09:21:49;94380.09;;;13.41;67.95
10832;BME280;5469;48.574;8.768;2022-11-15T09:24:24;94370.28;;;13.27;68.07
10832;BME280;5469;48.574;8.768;2022-11-15T09:26:59;94360.50;;;12.73;68.81
10832;BME280;5469;48.574;8.768;2022-11-15T09:29:34;94372.31;;;12.66;69.46
10832;BME280;5469;48.574;8.768;2022-11-15T09:32:10;94370.63;;;12.71;69.08
10832;BME280;5469;48.574;8.768;2022-11-15T09:34:47;94361.88;;;12.56;68.92
10832;BME280;5469;48.574;8.768;2022-11-15T09:37:22;94371.50;;;12.52;69.60
10832;BME280;5469;48.574;8.768;2022-11-15T09:39:56;94369.94;;;12.79;70.01
10832;BME280;5469;48.574;8.768;2022-11-15T09:42:48;94373.09;;;12.81;69.61
10832;BME280;5469;48.574;8.768;2022-11-15T09:45:30;94368.97;;;12.75;68.95
10832;BME280;5469;48.574;8.768;2022-11-15T09:48:29;94371.31;;;12.90;68.41
10832;BME280;5469;48.574;8.768;2022-11-15T09:51:16;94358.00;;;12.76;68.52
10832;BME280;5469;48.574;8.768;2022-11-15T09:53:59;94357.72;;;12.78;68.43
10832;BME280;5469;48.574;8.768;2022-11-15T09:56:40;94360.84;;;12.94;68.59
10832;BME280;5469;48.574;8.768;2022-11-15T09:59:28;94358.88;;;12.99;67.70
10832;BME280;5469;48.574;8.768;2022-11-15T10:02:17;94348.25;;;12.85;67.42
10832;BME280;5469;48.574;8.768;2022-11-15T10:04:56;94344.72;;;12.90;68.22
10832;BME280;5469;48.574;8.768;2022-11-15T10:07:39;94347.00;;;12.83;69.43
10832;BME280;5469;48.574;8.768;2022-11-15T10:10:20;94346.50;;;12.81;69.21
10832;BME280;5469;48.574;8.768;2022-11-15T10:12:57;94345.44;;;12.82;68.29
10832;BME280;5469;48.574;8.768;2022-11-15T10:15:33;94344.50;;;12.86;68.21
10832;BME280;5469;48.574;8.768;2022-11-15T10:18:13;94342.38;;;12.75;69.42
10832;BME280;5469;48.574;8.768;2022-11-15T10:20:51;94335.53;;;12.96;68.40
10832;BME280;5469;48.574;8.768;2022-11-15T10:23:31;94332.59;;;12.84;68.96
10832;BME280;5469;48.574;8.768;2022-11-15T10:26:10;94338.69;;;12.98;68.61
10832;BME280;5469;48.574;8.768;2022-11-15T10:28:46;94335.03;;;12.94;68.85
10832;BME280;5469;48.574;8.768;2022-11-15T10:31:24;94330.75;;;12.84;68.94
10832;BME280;5469;48.574;8.768;2022-11-15T10:34:11;94323.44;;;12.90;68.62
10832;BME280;5469;48.574;8.768;2022-11-15T10:36:53;94334.09;;;12.90;68.83
10832;BME280;5469;48.574;8.768;2022-11-15T10:39:31;94326.38;;;13.02;68.81
10832;BME280;5469;48.574;8.768;2022-11-15T10:42:18;94321.84;;;12.89;68.99
10832;BME280;5469;48.574;8.768;2022-11-15T10:45:00;94323.66;;;12.80;69.23
10832;BME280;5469;48.574;8.768;2022-11-15T10:47:35;94317.66;;;12.74;68.56
10832;BME280;5469;48.574;8.768;2022-11-15T10:50:29;94311.44;;;12.79;69.13
10832;BME280;5469;48.574;8.768;2022-11-15T10:53:10;94316.56;;;12.75;69.98
10832;BME280;5469;48.574;8.768;2022-11-15T10:55:51;94315.56;;;12.85;69.53
10832;BME280;5469;48.574;8.768;2022-11-15T10:58:34;94309.88;;;12.78;69.44
10832;BME280;5469;48.574;8.768;2022-11-15T11:01:13;94301.50;;;12.84;69.42
10832;BME280;5469;48.574;8.768;2022-11-15T11:04:01;94300.13;;;13.09;69.35
10832;BME280;5469;48.574;8.768;2022-11-15T11:06:52;94296.63;;;13.00;70.99
10832;BME280;5469;48.574;8.768;2022-11-15T11:09:31;94292.09;;;13.01;70.70
10832;BME280;5469;48.574;8.768;2022-11-15T11:12:12;94293.09;;;12.91;70.69
10832;BME280;5469;48.574;8.768;2022-11-15T11:14:48;94277.19;;;12.77;70.85
10832;BME280;5469;48.574;8.768;2022-11-15T11:17:29;94278.63;;;12.97;70.03
10832;BME280;5469;48.574;8.768;2022-11-15T11:20:14;94280.78;;;13.18;69.96
10832;BME280;5469;48.574;8.768;2022-11-15T11:23:01;94273.91;;;13.17;69.28
10832;BME280;5469;48.574;8.768;2022-11-15T11:25:44;94275.22;;;13.42;69.96
10832;BME280;5469;48.574;8.768;2022-11-15T11:28:30;94271.28;;;13.39;68.92
10832;BME280;5469;48.574;8.768;2022-11-15T11:31:17;94268.63;;;13.39;69.55
10832;BME280;5469;48.574;8.768;2022-11-15T11:34:02;94262.06;;;13.45;69.98
10832;BME280;5469;48.574;8.768;2022-11-15T11:36:42;94257.94;;;13.62;70.62
10832;BME280;5469;48.574;8.768;2022-11-15T11:39:28;94259.81;;;13.61;69.88
10832;BME280;5469;48.574;8.768;2022-11-15T11:42:10;94256.47;;;13.47;69.52
10832;BME280;5469;48.574;8.768;2022-11-15T11:45:04;94252.03;;;13.65;69.85
10832;BME280;5469;48.574;8.768;2022-11-15T11:47:51;94246.06;;;13.37;70.70
10832;BME280;5469;48.574;8.768;2022-11-15T11:50:28;94235.22;;;13.33;71.45
10832;BME280;5469;48.574;8.768;2022-11-15T11:53:09;94234.03;;;13.39;71.39
10832;BME280;5469;48.574;8.768;2022-11-15T11:55:49;94236.88;;;13.51;72.55
10832;BME280;5469;48.574;8.768;2022-11-15T11:58:32;94237.63;;;13.66;72.58
10832;BME280;5469;48.574;8.768;2022-11-15T12:01:14;94234.97;;;13.43;71.96
10832;BME280;5469;48.574;8.768;2022-11-15T12:03:55;94236.31;;;13.54;71.77
10832;BME280;5469;48.574;8.768;2022-11-15T12:06:35;94233.84;;;13.67;71.82
10832;BME280;5469;48.574;8.768;2022-11-15T12:09:14;94234.09;;;13.88;70.56
10832;BME280;5469;48.574;8.768;2022-11-15T12:11:56;94230.63;;;13.47;73.73
10832;BME280;5469;48.574;8.768;2022-11-15T12:14:38;94230.25;;;13.63;72.57
10832;BME280;5469;48.574;8.768;2022-11-15T12:17:24;94217.28;;;13.70;71.97
10832;BME280;5469;48.574;8.768;2022-11-15T12:20:02;94230.72;;;13.65;72.27
10832;BME280;5469;48.574;8.768;2022-11-15T12:22:44;94220.91;;;13.51;72.84
10832;BME280;5469;48.574;8.768;2022-11-15T12:25:24;94213.69;;;13.43;73.02
10832;BME280;5469;48.574;8.768;2022-11-15T12:28:06;94215.78;;;13.55;74.73
10832;BME280;5469;48.574;8.768;2022-11-15T12:30:50;94212.97;;;13.29;73.01
10832;BME280;5469;48.574;8.768;2022-11-15T12:33:32;94215.69;;;13.38;71.63
10832;BME280;5469;48.574;8.768;2022-11-15T12:36:12;94216.69;;;13.50;71.13
10832;BME280;5469;48.574;8.768;2022-11-15T12:39:05;94217.81;;;13.49;73.02
10832;BME280;5469;48.574;8.768;2022-11-15T12:41:41;94199.56;;;13.34;71.34
10832;BME280;5469;48.574;8.768;2022-11-15T12:44:58;94210.38;;;13.38;72.05
10832;BME280;5469;48.574;8.768;2022-11-15T12:47:33;94210.84;;;13.71;71.68
10832;BME280;5469;48.574;8.768;2022-11-15T12:50:14;94200.06;;;13.76;72.77
10832;BME280;5469;48.574;8.768;2022-11-15T12:56:09;94197.53;;;13.40;73.46
10832;BME280;5469;48.574;8.768;2022-11-15T12:58:47;94184.34;;;13.66;73.03
10832;BME280;5469;48.574;8.768;2022-11-15T13:04:41;94190.84;;;13.51;71.49
10832;BME280;5469;48.574;8.768;2022-11-15T13:07:56;94184.78;;;13.59;71.66
10832;BME280;5469;48.574;8.768;2022-11-15T13:10:33;94173.19;;;13.55;71.34
10832;BME280;5469;48.574;8.768;2022-11-15T13:13:10;94169.88;;;13.49;73.03
10832;BME280;5469;48.574;8.768;2022-11-15T13:15:57;94166.63;;;13.30;73.53
10832;BME280;5469;48.574;8.768;2022-11-15T13:18:36;94160.22;;;13.08;75.16
10832;BME280;5469;48.574;8.768;2022-11-15T13:21:23;94153.81;;;13.32;74.62
10832;BME280;5469;48.574;8.768;2022-11-15T13:24:19;94145.66;;;13.60;74.78
10832;BME280;5469;48.574;8.768;2022-11-15T13:26:54;94137.41;;;13.70;75.07
10832;BME280;5469;48.574;8.768;2022-11-15T13:29:31;94135.56;;;13.48;75.74
10832;BME280;5469;48.574;8.768;2022-11-15T13:32:13;94146.63;;;13.10;75.88
10832;BME280;5469;48.574;8.768;2022-11-15T13:34:51;94139.13;;;13.12;77.10
10832;BME280;5469;48.574;8.768;2022-11-15T13:37:32;94134.00;;;13.47;75.21
10832;BME280;5469;48.574;8.768;2022-11-15T13:40:26;94121.16;;;13.49;74.99
10832;BME280;5469;48.574;8.768;2022-11-15T13:46:13;94107.22;;;13.43;75.30
10832;BME280;5469;48.574;8.768;2022-11-15T13:48:52;94107.91;;;13.58;75.18
10832;BME280;5469;48.574;8.768;2022-11-15T13:51:33;94102.22;;;13.50;75.83
10832;BME280;5469;48.574;8.768;2022-11-15T13:54:16;94099.72;;;13.45;75.36
10832;BME280;5469;48.574;8.768;2022-11-15T13:56:57;94095.63;;;13.39;76.35
10832;BME280;5469;48.574;8.768;2022-11-15T13:59:35;94093.94;;;13.21;76.50
10832;BME280;5469;48.574;8.768;2022-11-15T14:02:15;94093.63;;;13.22;76.62
10832;BME280;5469;48.574;8.768;2022-11-15T14:04:53;94081.34;;;13.35;76.92
10832;BME280;5469;48.574;8.768;2022-11-15T14:07:30;94090.94;;;13.14;78.09
10832;BME280;5469;48.574;8.768;2022-11-15T14:10:24;94082.09;;;13.27;75.61
10832;BME280;5469;48.574;8.768;2022-11-15T14:13:03;94074.22;;;13.22;76.83
10832;BME280;5469;48.574;8.768;2022-11-15T14:15:40;94063.84;;;13.11;78.03
10832;BME280;5469;48.574;8.768;2022-11-15T14:18:44;94075.59;;;13.10;78.97
10832;BME280;5469;48.574;8.768;2022-11-15T14:21:21;94063.97;;;13.06;77.66
10832;BME280;5469;48.574;8.768;2022-11-15T14:24:16;94057.38;;;12.95;78.26
10832;BME280;5469;48.574;8.768;2022-11-15T14:26:51;94057.75;;;13.11;78.14
10832;BME280;5469;48.574;8.768;2022-11-15T14:29:29;94058.09;;;13.18;77.26